Terminal Aerodrome Forecast
Issued by NWS Bismarck, ND

Home | Current Version | Previous Version | Text Only | Print | Product List | Glossary On
Versions: 1 2 3 4 5 6 7 8 9 10 11 12 13
000
FTUS43 KBIS 052336
TAFISN
TAF
KISN 052336Z 0600/0624 16015KT P6SM SCT080
     FM060100 14010KT P6SM SCT080
     FM061000 14006KT P6SM OVC060
     FM061600 14008KT P6SM -SHRA SCT008 OVC018=

USA.gov is the U.S. government's official web portal to all federal, state and local government web resources and services.